sensor_id;sensor_type;location;lat;lon;timestamp;P1;durP1;ratioP1;P2;durP2;ratioP2
9238;SDS011;4654;43.242;27.976;2024-03-08T00:00:00;27.40;;;19.20;;
9238;SDS011;4654;43.242;27.976;2024-03-08T00:02:35;28.23;;;18.23;;
9238;SDS011;4654;43.242;27.976;2024-03-08T00:05:03;27.63;;;17.77;;
9238;SDS011;4654;43.242;27.976;2024-03-08T00:07:32;29.30;;;18.47;;
9238;SDS011;4654;43.242;27.976;2024-03-08T00:09:59;25.07;;;18.97;;
9238;SDS011;4654;43.242;27.976;2024-03-08T00:12:27;26.53;;;19.60;;
9238;SDS011;4654;43.242;27.976;2024-03-08T00:14:54;28.37;;;19.77;;
9238;SDS011;4654;43.242;27.976;2024-03-08T00:17:21;27.77;;;18.77;;
9238;SDS011;4654;43.242;27.976;2024-03-08T00:19:49;29.90;;;19.30;;
9238;SDS011;4654;43.242;27.976;2024-03-08T00:22:16;24.90;;;18.50;;
9238;SDS011;4654;43.242;27.976;2024-03-08T00:24:45;27.17;;;18.37;;
9238;SDS011;4654;43.242;27.976;2024-03-08T00:27:12;27.83;;;19.03;;
9238;SDS011;4654;43.242;27.976;2024-03-08T00:29:41;27.37;;;19.07;;
9238;SDS011;4654;43.242;27.976;2024-03-08T00:32:08;29.67;;;18.20;;
9238;SDS011;4654;43.242;27.976;2024-03-08T00:34:36;27.33;;;17.87;;
9238;SDS011;4654;43.242;27.976;2024-03-08T00:37:03;25.37;;;18.27;;
9238;SDS011;4654;43.242;27.976;2024-03-08T00:39:31;30.70;;;18.47;;
9238;SDS011;4654;43.242;27.976;2024-03-08T00:41:59;27.33;;;17.93;;
9238;SDS011;4654;43.242;27.976;2024-03-08T00:44:26;28.70;;;17.63;;
9238;SDS011;4654;43.242;27.976;2024-03-08T00:46:53;24.87;;;18.10;;
9238;SDS011;4654;43.242;27.976;2024-03-08T00:49:21;27.40;;;18.43;;
9238;SDS011;4654;43.242;27.976;2024-03-08T00:51:48;28.40;;;17.87;;
9238;SDS011;4654;43.242;27.976;2024-03-08T00:54:16;22.83;;;17.37;;
9238;SDS011;4654;43.242;27.976;2024-03-08T00:56:43;23.33;;;17.17;;
9238;SDS011;4654;43.242;27.976;2024-03-08T00:59:12;23.73;;;18.20;;
9238;SDS011;4654;43.242;27.976;2024-03-08T01:01:40;25.47;;;17.83;;
9238;SDS011;4654;43.242;27.976;2024-03-08T01:04:07;28.27;;;18.37;;
9238;SDS011;4654;43.242;27.976;2024-03-08T01:06:34;23.10;;;17.20;;
9238;SDS011;4654;43.242;27.976;2024-03-08T01:09:02;26.27;;;18.03;;
9238;SDS011;4654;43.242;27.976;2024-03-08T01:11:32;25.83;;;17.47;;
9238;SDS011;4654;43.242;27.976;2024-03-08T01:13:59;22.33;;;16.83;;
9238;SDS011;4654;43.242;27.976;2024-03-08T01:16:28;26.40;;;17.53;;
9238;SDS011;4654;43.242;27.976;2024-03-08T01:18:55;28.80;;;18.17;;
9238;SDS011;4654;43.242;27.976;2024-03-08T01:21:22;27.00;;;17.10;;
9238;SDS011;4654;43.242;27.976;2024-03-08T01:23:49;20.43;;;16.07;;
9238;SDS011;4654;43.242;27.976;2024-03-08T01:26:16;26.70;;;17.47;;
9238;SDS011;4654;43.242;27.976;2024-03-08T01:28:44;25.87;;;17.67;;
9238;SDS011;4654;43.242;27.976;2024-03-08T01:31:11;26.23;;;16.77;;
9238;SDS011;4654;43.242;27.976;2024-03-08T01:33:40;25.17;;;17.50;;
9238;SDS011;4654;43.242;27.976;2024-03-08T01:36:07;26.23;;;18.17;;
9238;SDS011;4654;43.242;27.976;2024-03-08T01:38:34;22.73;;;16.27;;
9238;SDS011;4654;43.242;27.976;2024-03-08T01:41:02;21.87;;;16.37;;
9238;SDS011;4654;43.242;27.976;2024-03-08T01:43:29;23.77;;;16.53;;
9238;SDS011;4654;43.242;27.976;2024-03-08T01:45:57;22.93;;;17.00;;
9238;SDS011;4654;43.242;27.976;2024-03-08T01:48:25;24.67;;;18.50;;
9238;SDS011;4654;43.242;27.976;2024-03-08T01:50:54;25.40;;;16.93;;
9238;SDS011;4654;43.242;27.976;2024-03-08T01:53:22;22.43;;;16.73;;
9238;SDS011;4654;43.242;27.976;2024-03-08T01:55:52;24.03;;;17.83;;
9238;SDS011;4654;43.242;27.976;2024-03-08T01:58:22;25.80;;;17.73;;
9238;SDS011;4654;43.242;27.976;2024-03-08T02:00:50;24.70;;;17.77;;
9238;SDS011;4654;43.242;27.976;2024-03-08T02:03:19;26.07;;;18.10;;
9238;SDS011;4654;43.242;27.976;2024-03-08T02:05:47;22.37;;;17.13;;
9238;SDS011;4654;43.242;27.976;2024-03-08T02:08:18;27.23;;;17.53;;
9238;SDS011;4654;43.242;27.976;2024-03-08T02:10:47;23.87;;;16.73;;
9238;SDS011;4654;43.242;27.976;2024-03-08T02:13:16;23.37;;;16.47;;
9238;SDS011;4654;43.242;27.976;2024-03-08T02:15:53;25.27;;;17.00;;
9238;SDS011;4654;43.242;27.976;2024-03-08T02:18:21;26.30;;;17.23;;
9238;SDS011;4654;43.242;27.976;2024-03-08T02:20:51;22.87;;;16.77;;
9238;SDS011;4654;43.242;27.976;2024-03-08T02:23:18;25.50;;;17.07;;
9238;SDS011;4654;43.242;27.976;2024-03-08T02:25:46;22.23;;;16.17;;
9238;SDS011;4654;43.242;27.976;2024-03-08T02:28:13;27.50;;;17.00;;
9238;SDS011;4654;43.242;27.976;2024-03-08T02:30:41;23.80;;;16.63;;
9238;SDS011;4654;43.242;27.976;2024-03-08T02:33:08;24.90;;;16.47;;
9238;SDS011;4654;43.242;27.976;2024-03-08T02:35:36;24.63;;;16.90;;
9238;SDS011;4654;43.242;27.976;2024-03-08T02:38:04;24.97;;;16.37;;
9238;SDS011;4654;43.242;27.976;2024-03-08T02:40:32;26.93;;;17.13;;
9238;SDS011;4654;43.242;27.976;2024-03-08T02:42:59;25.70;;;16.93;;
9238;SDS011;4654;43.242;27.976;2024-03-08T02:45:26;25.57;;;17.90;;
9238;SDS011;4654;43.242;27.976;2024-03-08T02:47:53;27.07;;;17.00;;
9238;SDS011;4654;43.242;27.976;2024-03-08T02:50:22;24.67;;;17.83;;
9238;SDS011;4654;43.242;27.976;2024-03-08T02:52:50;26.07;;;17.57;;
9238;SDS011;4654;43.242;27.976;2024-03-08T02:55:19;24.23;;;17.00;;
9238;SDS011;4654;43.242;27.976;2024-03-08T02:57:46;23.47;;;17.17;;
9238;SDS011;4654;43.242;27.976;2024-03-08T03:00:13;23.00;;;16.77;;
9238;SDS011;4654;43.242;27.976;2024-03-08T03:02:41;24.70;;;16.47;;
9238;SDS011;4654;43.242;27.976;2024-03-08T03:05:09;21.27;;;15.70;;
9238;SDS011;4654;43.242;27.976;2024-03-08T03:07:36;24.47;;;15.97;;
9238;SDS011;4654;43.242;27.976;2024-03-08T03:10:04;29.67;;;17.57;;
9238;SDS011;4654;43.242;27.976;2024-03-08T03:12:33;25.13;;;16.83;;
9238;SDS011;4654;43.242;27.976;2024-03-08T03:15:00;24.17;;;16.47;;
9238;SDS011;4654;43.242;27.976;2024-03-08T03:17:28;26.00;;;16.47;;
9238;SDS011;4654;43.242;27.976;2024-03-08T03:19:55;25.17;;;17.23;;
9238;SDS011;4654;43.242;27.976;2024-03-08T03:22:22;25.73;;;16.80;;
9238;SDS011;4654;43.242;27.976;2024-03-08T03:24:50;25.90;;;16.17;;
9238;SDS011;4654;43.242;27.976;2024-03-08T03:27:18;31.70;;;16.87;;
9238;SDS011;4654;43.242;27.976;2024-03-08T03:29:47;29.20;;;17.00;;
9238;SDS011;4654;43.242;27.976;2024-03-08T03:32:14;26.23;;;17.20;;
9238;SDS011;4654;43.242;27.976;2024-03-08T03:34:43;26.07;;;16.33;;
9238;SDS011;4654;43.242;27.976;2024-03-08T03:37:11;28.03;;;17.07;;
9238;SDS011;4654;43.242;27.976;2024-03-08T03:39:38;26.47;;;16.27;;
9238;SDS011;4654;43.242;27.976;2024-03-08T03:42:14;23.03;;;17.27;;
9238;SDS011;4654;43.242;27.976;2024-03-08T03:44:41;25.13;;;15.70;;
9238;SDS011;4654;43.242;27.976;2024-03-08T03:47:12;23.80;;;16.60;;
9238;SDS011;4654;43.242;27.976;2024-03-08T03:49:39;24.63;;;17.10;;
9238;SDS011;4654;43.242;27.976;2024-03-08T03:52:07;24.20;;;16.77;;
9238;SDS011;4654;43.242;27.976;2024-03-08T03:54:34;28.03;;;17.00;;
9238;SDS011;4654;43.242;27.976;2024-03-08T03:57:01;24.87;;;16.83;;
9238;SDS011;4654;43.242;27.976;2024-03-08T03:59:28;25.27;;;17.37;;
9238;SDS011;4654;43.242;27.976;2024-03-08T04:01:56;23.27;;;16.33;;
9238;SDS011;4654;43.242;27.976;2024-03-08T04:04:25;26.53;;;16.70;;
9238;SDS011;4654;43.242;27.976;2024-03-08T04:06:53;24.47;;;16.83;;
9238;SDS011;4654;43.242;27.976;2024-03-08T04:09:20;24.70;;;17.60;;
9238;SDS011;4654;43.242;27.976;2024-03-08T04:11:47;25.77;;;17.40;;
9238;SDS011;4654;43.242;27.976;2024-03-08T04:14:18;24.40;;;17.17;;
9238;SDS011;4654;43.242;27.976;2024-03-08T04:16:45;23.87;;;16.97;;
9238;SDS011;4654;43.242;27.976;2024-03-08T04:19:13;22.40;;;16.77;;
9238;SDS011;4654;43.242;27.976;2024-03-08T04:21:42;23.67;;;16.20;;
9238;SDS011;4654;43.242;27.976;2024-03-08T04:24:09;25.57;;;17.87;;
9238;SDS011;4654;43.242;27.976;2024-03-08T04:26:36;24.47;;;16.77;;
9238;SDS011;4654;43.242;27.976;2024-03-08T04:29:03;25.50;;;17.03;;
9238;SDS011;4654;43.242;27.976;2024-03-08T04:31:31;22.23;;;17.27;;
9238;SDS011;4654;43.242;27.976;2024-03-08T04:33:58;28.27;;;17.90;;
9238;SDS011;4654;43.242;27.976;2024-03-08T04:36:25;27.80;;;17.17;;
9238;SDS011;4654;43.242;27.976;2024-03-08T04:38:55;24.73;;;16.93;;
9238;SDS011;4654;43.242;27.976;2024-03-08T04:41:22;30.83;;;18.97;;
9238;SDS011;4654;43.242;27.976;2024-03-08T04:43:49;26.97;;;17.83;;
9238;SDS011;4654;43.242;27.976;2024-03-08T04:46:17;30.37;;;18.47;;
9238;SDS011;4654;43.242;27.976;2024-03-08T04:48:44;23.73;;;16.60;;
9238;SDS011;4654;43.242;27.976;2024-03-08T04:51:12;28.30;;;17.30;;
9238;SDS011;4654;43.242;27.976;2024-03-08T04:53:39;27.67;;;17.70;;
9238;SDS011;4654;43.242;27.976;2024-03-08T04:56:07;23.33;;;17.20;;
9238;SDS011;4654;43.242;27.976;2024-03-08T04:58:35;30.40;;;18.77;;
9238;SDS011;4654;43.242;27.976;2024-03-08T05:01:03;24.67;;;17.77;;
9238;SDS011;4654;43.242;27.976;2024-03-08T05:03:30;38.23;;;19.83;;
9238;SDS011;4654;43.242;27.976;2024-03-08T05:05:57;29.30;;;19.27;;
9238;SDS011;4654;43.242;27.976;2024-03-08T05:08:25;30.13;;;19.50;;
9238;SDS011;4654;43.242;27.976;2024-03-08T05:10:52;29.27;;;18.80;;
9238;SDS011;4654;43.242;27.976;2024-03-08T05:13:20;30.17;;;19.70;;
9238;SDS011;4654;43.242;27.976;2024-03-08T05:15:48;28.00;;;20.07;;
9238;SDS011;4654;43.242;27.976;2024-03-08T05:18:16;33.30;;;19.67;;
9238;SDS011;4654;43.242;27.976;2024-03-08T05:20:43;29.27;;;18.37;;
9238;SDS011;4654;43.242;27.976;2024-03-08T05:23:11;27.70;;;19.70;;
9238;SDS011;4654;43.242;27.976;2024-03-08T05:25:38;30.07;;;20.20;;
9238;SDS011;4654;43.242;27.976;2024-03-08T05:28:06;27.50;;;19.47;;
9238;SDS011;4654;43.242;27.976;2024-03-08T05:30:35;33.33;;;20.20;;
9238;SDS011;4654;43.242;27.976;2024-03-08T05:33:05;27.40;;;20.40;;
9238;SDS011;4654;43.242;27.976;2024-03-08T05:35:35;28.77;;;19.27;;
9238;SDS011;4654;43.242;27.976;2024-03-08T05:38:03;27.60;;;18.67;;
9238;SDS011;4654;43.242;27.976;2024-03-08T05:40:30;31.13;;;21.00;;
9238;SDS011;4654;43.242;27.976;2024-03-08T05:42:58;33.43;;;19.73;;
9238;SDS011;4654;43.242;27.976;2024-03-08T05:45:25;32.70;;;20.10;;
9238;SDS011;4654;43.242;27.976;2024-03-08T05:47:54;28.53;;;20.00;;
9238;SDS011;4654;43.242;27.976;2024-03-08T05:50:21;26.90;;;19.07;;
9238;SDS011;4654;43.242;27.976;2024-03-08T05:52:49;34.63;;;21.03;;
9238;SDS011;4654;43.242;27.976;2024-03-08T05:55:16;32.70;;;21.00;;
9238;SDS011;4654;43.242;27.976;2024-03-08T05:57:43;29.70;;;19.83;;
9238;SDS011;4654;43.242;27.976;2024-03-08T06:00:10;36.40;;;20.30;;
9238;SDS011;4654;43.242;27.976;2024-03-08T06:02:41;32.87;;;21.20;;
9238;SDS011;4654;43.242;27.976;2024-03-08T06:05:10;33.07;;;20.27;;
9238;SDS011;4654;43.242;27.976;2024-03-08T06:07:37;29.63;;;19.40;;
9238;SDS011;4654;43.242;27.976;2024-03-08T06:10:06;31.93;;;20.20;;
9238;SDS011;4654;43.242;27.976;2024-03-08T06:12:35;32.53;;;20.07;;
9238;SDS011;4654;43.242;27.976;2024-03-08T06:15:05;31.00;;;20.00;;
9238;SDS011;4654;43.242;27.976;2024-03-08T06:17:34;27.20;;;18.23;;
9238;SDS011;4654;43.242;27.976;2024-03-08T06:20:01;30.97;;;18.63;;
9238;SDS011;4654;43.242;27.976;2024-03-08T06:22:36;26.93;;;17.67;;
9238;SDS011;4654;43.242;27.976;2024-03-08T06:25:06;31.03;;;18.43;;
9238;SDS011;4654;43.242;27.976;2024-03-08T06:27:33;25.07;;;17.77;;
9238;SDS011;4654;43.242;27.976;2024-03-08T06:30:00;30.83;;;18.10;;
9238;SDS011;4654;43.242;27.976;2024-03-08T06:32:30;25.17;;;17.33;;
9238;SDS011;4654;43.242;27.976;2024-03-08T06:35:00;27.10;;;17.20;;
9238;SDS011;4654;43.242;27.976;2024-03-08T06:37:28;23.70;;;16.50;;
9238;SDS011;4654;43.242;27.976;2024-03-08T06:39:58;22.03;;;15.73;;
9238;SDS011;4654;43.242;27.976;2024-03-08T06:42:26;25.27;;;16.03;;
9238;SDS011;4654;43.242;27.976;2024-03-08T06:44:53;22.87;;;15.43;;
9238;SDS011;4654;43.242;27.976;2024-03-08T06:47:25;25.10;;;17.23;;
9238;SDS011;4654;43.242;27.976;2024-03-08T06:49:52;22.63;;;15.10;;
9238;SDS011;4654;43.242;27.976;2024-03-08T06:52:19;21.87;;;15.77;;
9238;SDS011;4654;43.242;27.976;2024-03-08T06:54:47;24.50;;;16.23;;
9238;SDS011;4654;43.242;27.976;2024-03-08T06:57:16;20.70;;;15.07;;
9238;SDS011;4654;43.242;27.976;2024-03-08T06:59:43;23.30;;;15.93;;
9238;SDS011;4654;43.242;27.976;2024-03-08T07:02:10;22.57;;;15.57;;
9238;SDS011;4654;43.242;27.976;2024-03-08T07:04:37;21.50;;;15.20;;
9238;SDS011;4654;43.242;27.976;2024-03-08T07:07:04;21.23;;;15.40;;
9238;SDS011;4654;43.242;27.976;2024-03-08T07:09:33;23.13;;;14.80;;
9238;SDS011;4654;43.242;27.976;2024-03-08T07:12:00;26.53;;;16.07;;
9238;SDS011;4654;43.242;27.976;2024-03-08T07:14:29;25.00;;;16.87;;
9238;SDS011;4654;43.242;27.976;2024-03-08T07:16:56;22.93;;;16.30;;
9238;SDS011;4654;43.242;27.976;2024-03-08T07:19:23;23.03;;;16.33;;
9238;SDS011;4654;43.242;27.976;2024-03-08T07:21:50;18.77;;;15.47;;
9238;SDS011;4654;43.242;27.976;2024-03-08T07:24:17;23.53;;;16.33;;
9238;SDS011;4654;43.242;27.976;2024-03-08T07:27:03;25.37;;;16.23;;
9238;SDS011;4654;43.242;27.976;2024-03-08T07:29:32;25.70;;;16.83;;
9238;SDS011;4654;43.242;27.976;2024-03-08T07:31:59;24.67;;;17.10;;
9238;SDS011;4654;43.242;27.976;2024-03-08T07:34:38;25.47;;;16.77;;
9238;SDS011;4654;43.242;27.976;2024-03-08T07:37:05;22.67;;;16.63;;
9238;SDS011;4654;43.242;27.976;2024-03-08T07:39:36;25.77;;;16.03;;
9238;SDS011;4654;43.242;27.976;2024-03-08T07:42:05;21.80;;;16.03;;
9238;SDS011;4654;43.242;27.976;2024-03-08T07:44:33;24.33;;;16.67;;
9238;SDS011;4654;43.242;27.976;2024-03-08T07:47:01;24.17;;;17.03;;
9238;SDS011;4654;43.242;27.976;2024-03-08T07:49:28;25.53;;;16.50;;
9238;SDS011;4654;43.242;27.976;2024-03-08T07:51:56;26.67;;;16.90;;
9238;SDS011;4654;43.242;27.976;2024-03-08T07:54:24;28.43;;;16.93;;
9238;SDS011;4654;43.242;27.976;2024-03-08T07:56:52;24.80;;;17.20;;
9238;SDS011;4654;43.242;27.976;2024-03-08T07:59:19;24.33;;;16.33;;
9238;SDS011;4654;43.242;27.976;2024-03-08T08:01:48;24.03;;;16.73;;
9238;SDS011;4654;43.242;27.976;2024-03-08T08:04:15;26.87;;;16.00;;
9238;SDS011;4654;43.242;27.976;2024-03-08T08:06:43;20.90;;;15.60;;
9238;SDS011;4654;43.242;27.976;2024-03-08T08:09:10;24.27;;;16.37;;
9238;SDS011;4654;43.242;27.976;2024-03-08T08:11:40;24.73;;;16.67;;
9238;SDS011;4654;43.242;27.976;2024-03-08T08:14:08;25.50;;;16.60;;
9238;SDS011;4654;43.242;27.976;2024-03-08T08:16:36;24.73;;;17.70;;
9238;SDS011;4654;43.242;27.976;2024-03-08T08:19:04;22.03;;;16.43;;
9238;SDS011;4654;43.242;27.976;2024-03-08T08:21:33;24.70;;;17.37;;
9238;SDS011;4654;43.242;27.976;2024-03-08T08:24:02;21.60;;;15.13;;
9238;SDS011;4654;43.242;27.976;2024-03-08T08:26:29;19.10;;;14.77;;
9238;SDS011;4654;43.242;27.976;2024-03-08T08:28:58;22.00;;;15.83;;
9238;SDS011;4654;43.242;27.976;2024-03-08T08:31:25;22.73;;;17.10;;
9238;SDS011;4654;43.242;27.976;2024-03-08T08:33:53;21.60;;;16.23;;
9238;SDS011;4654;43.242;27.976;2024-03-08T08:36:25;23.63;;;16.23;;
9238;SDS011;4654;43.242;27.976;2024-03-08T08:38:54;23.33;;;15.93;;
9238;SDS011;4654;43.242;27.976;2024-03-08T08:41:23;26.30;;;15.47;;
9238;SDS011;4654;43.242;27.976;2024-03-08T08:43:50;20.90;;;15.50;;
9238;SDS011;4654;43.242;27.976;2024-03-08T08:46:18;18.73;;;13.97;;
9238;SDS011;4654;43.242;27.976;2024-03-08T08:48:46;19.53;;;15.37;;
9238;SDS011;4654;43.242;27.976;2024-03-08T08:51:14;21.73;;;15.07;;
9238;SDS011;4654;43.242;27.976;2024-03-08T08:53:43;24.80;;;15.57;;
9238;SDS011;4654;43.242;27.976;2024-03-08T08:56:11;19.23;;;14.67;;
9238;SDS011;4654;43.242;27.976;2024-03-08T08:58:39;22.00;;;15.20;;
9238;SDS011;4654;43.242;27.976;2024-03-08T09:01:07;24.70;;;15.00;;
9238;SDS011;4654;43.242;27.976;2024-03-08T09:03:35;22.10;;;14.90;;
9238;SDS011;4654;43.242;27.976;2024-03-08T09:06:02;22.60;;;14.37;;
9238;SDS011;4654;43.242;27.976;2024-03-08T09:08:30;24.83;;;15.47;;
9238;SDS011;4654;43.242;27.976;2024-03-08T09:10:59;21.17;;;14.83;;
9238;SDS011;4654;43.242;27.976;2024-03-08T09:13:26;22.63;;;14.90;;
9238;SDS011;4654;43.242;27.976;2024-03-08T09:15:53;22.40;;;15.17;;
9238;SDS011;4654;43.242;27.976;2024-03-08T09:18:20;24.10;;;16.33;;
9238;SDS011;4654;43.242;27.976;2024-03-08T09:20:49;24.40;;;17.13;;
9238;SDS011;4654;43.242;27.976;2024-03-08T09:23:19;23.07;;;16.53;;
9238;SDS011;4654;43.242;27.976;2024-03-08T09:25:46;31.00;;;19.67;;
9238;SDS011;4654;43.242;27.976;2024-03-08T09:28:15;32.63;;;19.97;;
9238;SDS011;4654;43.242;27.976;2024-03-08T09:30:42;22.87;;;16.97;;
9238;SDS011;4654;43.242;27.976;2024-03-08T09:33:10;27.87;;;17.73;;
9238;SDS011;4654;43.242;27.976;2024-03-08T09:35:37;26.43;;;15.77;;
9238;SDS011;4654;43.242;27.976;2024-03-08T09:38:04;22.13;;;16.60;;
9238;SDS011;4654;43.242;27.976;2024-03-08T09:40:34;31.53;;;17.73;;
9238;SDS011;4654;43.242;27.976;2024-03-08T09:43:01;24.57;;;16.80;;
9238;SDS011;4654;43.242;27.976;2024-03-08T09:45:30;20.27;;;16.50;;
9238;SDS011;4654;43.242;27.976;2024-03-08T09:48:01;23.33;;;15.67;;
9238;SDS011;4654;43.242;27.976;2024-03-08T09:50:28;21.03;;;15.83;;
9238;SDS011;4654;43.242;27.976;2024-03-08T09:52:56;25.60;;;16.20;;
9238;SDS011;4654;43.242;27.976;2024-03-08T09:55:24;22.27;;;16.47;;
9238;SDS011;4654;43.242;27.976;2024-03-08T09:57:57;20.97;;;16.37;;
9238;SDS011;4654;43.242;27.976;2024-03-08T10:00:45;25.93;;;17.23;;
9238;SDS011;4654;43.242;27.976;2024-03-08T10:03:13;21.93;;;16.07;;
9238;SDS011;4654;43.242;27.976;2024-03-08T10:05:40;28.67;;;16.67;;
9238;SDS011;4654;43.242;27.976;2024-03-08T10:08:09;21.83;;;16.27;;
9238;SDS011;4654;43.242;27.976;2024-03-08T10:10:37;26.67;;;16.37;;
9238;SDS011;4654;43.242;27.976;2024-03-08T10:13:05;24.37;;;15.50;;
9238;SDS011;4654;43.242;27.976;2024-03-08T10:15:33;25.97;;;15.93;;
9238;SDS011;4654;43.242;27.976;2024-03-08T10:18:01;26.33;;;18.03;;
9238;SDS011;4654;43.242;27.976;2024-03-08T10:20:29;20.70;;;15.50;;
9238;SDS011;4654;43.242;27.976;2024-03-08T10:22:58;24.50;;;15.87;;
9238;SDS011;4654;43.242;27.976;2024-03-08T10:25:26;22.33;;;15.73;;
9238;SDS011;4654;43.242;27.976;2024-03-08T10:27:53;24.60;;;15.60;;
9238;SDS011;4654;43.242;27.976;2024-03-08T10:30:21;21.23;;;15.93;;
9238;SDS011;4654;43.242;27.976;2024-03-08T10:32:49;21.97;;;15.63;;
9238;SDS011;4654;43.242;27.976;2024-03-08T10:35:18;24.37;;;15.33;;
9238;SDS011;4654;43.242;27.976;2024-03-08T10:37:46;23.37;;;16.43;;
9238;SDS011;4654;43.242;27.976;2024-03-08T10:40:16;24.47;;;16.10;;
9238;SDS011;4654;43.242;27.976;2024-03-08T10:42:50;23.97;;;16.53;;
9238;SDS011;4654;43.242;27.976;2024-03-08T10:45:22;26.37;;;16.20;;
9238;SDS011;4654;43.242;27.976;2024-03-08T10:48:01;22.73;;;16.10;;
9238;SDS011;4654;43.242;27.976;2024-03-08T10:50:49;28.27;;;16.23;;
9238;SDS011;4654;43.242;27.976;2024-03-08T10:53:18;23.90;;;17.40;;
9238;SDS011;4654;43.242;27.976;2024-03-08T10:55:46;22.23;;;15.63;;
9238;SDS011;4654;43.242;27.976;2024-03-08T10:58:18;23.73;;;15.73;;
9238;SDS011;4654;43.242;27.976;2024-03-08T11:00:47;24.57;;;15.80;;
9238;SDS011;4654;43.242;27.976;2024-03-08T11:06:15;30.00;;;17.00;;
9238;SDS011;4654;43.242;27.976;2024-03-08T11:08:47;22.87;;;17.00;;
9238;SDS011;4654;43.242;27.976;2024-03-08T11:11:25;23.37;;;16.70;;
9238;SDS011;4654;43.242;27.976;2024-03-08T11:13:55;25.00;;;16.70;;
9238;SDS011;4654;43.242;27.976;2024-03-08T11:16:38;25.50;;;16.63;;
9238;SDS011;4654;43.242;27.976;2024-03-08T11:22:01;28.30;;;16.53;;
9238;SDS011;4654;43.242;27.976;2024-03-08T11:24:36;24.50;;;16.93;;
9238;SDS011;4654;43.242;27.976;2024-03-08T11:27:06;22.23;;;15.30;;
9238;SDS011;4654;43.242;27.976;2024-03-08T11:29:37;26.17;;;16.87;;
9238;SDS011;4654;43.242;27.976;2024-03-08T11:32:09;23.40;;;16.97;;
9238;SDS011;4654;43.242;27.976;2024-03-08T11:34:38;23.70;;;17.13;;
9238;SDS011;4654;43.242;27.976;2024-03-08T11:37:12;23.97;;;16.60;;
9238;SDS011;4654;43.242;27.976;2024-03-08T11:39:40;23.87;;;16.00;;
9238;SDS011;4654;43.242;27.976;2024-03-08T11:42:13;26.57;;;17.20;;
9238;SDS011;4654;43.242;27.976;2024-03-08T11:44:42;27.47;;;16.10;;
9238;SDS011;4654;43.242;27.976;2024-03-08T11:47:09;20.87;;;15.27;;
9238;SDS011;4654;43.242;27.976;2024-03-08T11:49:37;20.57;;;15.40;;
9238;SDS011;4654;43.242;27.976;2024-03-08T11:52:10;27.70;;;16.27;;
9238;SDS011;4654;43.242;27.976;2024-03-08T11:54:39;23.37;;;15.93;;
9238;SDS011;4654;43.242;27.976;2024-03-08T11:57:06;25.70;;;17.50;;
9238;SDS011;4654;43.242;27.976;2024-03-08T11:59:35;22.67;;;16.17;;
9238;SDS011;4654;43.242;27.976;2024-03-08T12:02:03;20.93;;;14.43;;
9238;SDS011;4654;43.242;27.976;2024-03-08T12:04:31;19.87;;;14.67;;
9238;SDS011;4654;43.242;27.976;2024-03-08T12:07:02;18.47;;;14.27;;
9238;SDS011;4654;43.242;27.976;2024-03-08T12:09:35;23.43;;;15.50;;
9238;SDS011;4654;43.242;27.976;2024-03-08T12:12:02;21.43;;;13.50;;
9238;SDS011;4654;43.242;27.976;2024-03-08T12:14:31;18.20;;;12.83;;
9238;SDS011;4654;43.242;27.976;2024-03-08T12:16:58;18.67;;;12.47;;
9238;SDS011;4654;43.242;27.976;2024-03-08T12:19:26;19.47;;;12.87;;
9238;SDS011;4654;43.242;27.976;2024-03-08T12:21:54;21.97;;;12.60;;
9238;SDS011;4654;43.242;27.976;2024-03-08T12:24:21;21.50;;;13.30;;
9238;SDS011;4654;43.242;27.976;2024-03-08T12:26:50;17.80;;;13.10;;
9238;SDS011;4654;43.242;27.976;2024-03-08T12:29:18;17.70;;;13.33;;
9238;SDS011;4654;43.242;27.976;2024-03-08T12:31:48;22.13;;;13.80;;
9238;SDS011;4654;43.242;27.976;2024-03-08T12:34:18;20.50;;;14.53;;
9238;SDS011;4654;43.242;27.976;2024-03-08T12:36:46;19.03;;;14.27;;
9238;SDS011;4654;43.242;27.976;2024-03-08T12:39:15;19.50;;;13.57;;
9238;SDS011;4654;43.242;27.976;2024-03-08T12:41:47;20.27;;;14.00;;
9238;SDS011;4654;43.242;27.976;2024-03-08T12:44:17;21.67;;;13.60;;
9238;SDS011;4654;43.242;27.976;2024-03-08T12:46:44;21.93;;;15.17;;
9238;SDS011;4654;43.242;27.976;2024-03-08T12:49:11;20.17;;;13.93;;
9238;SDS011;4654;43.242;27.976;2024-03-08T12:51:42;21.93;;;14.50;;
9238;SDS011;4654;43.242;27.976;2024-03-08T12:54:10;21.60;;;14.20;;
9238;SDS011;4654;43.242;27.976;2024-03-08T12:56:37;22.63;;;14.50;;
9238;SDS011;4654;43.242;27.976;2024-03-08T12:59:06;19.93;;;14.63;;
9238;SDS011;4654;43.242;27.976;2024-03-08T13:01:35;20.67;;;14.43;;
9238;SDS011;4654;43.242;27.976;2024-03-08T13:04:03;24.23;;;13.93;;
9238;SDS011;4654;43.242;27.976;2024-03-08T13:06:31;20.20;;;13.90;;
9238;SDS011;4654;43.242;27.976;2024-03-08T13:08:59;27.33;;;14.57;;
9238;SDS011;4654;43.242;27.976;2024-03-08T13:11:30;20.53;;;14.67;;
9238;SDS011;4654;43.242;27.976;2024-03-08T13:14:02;25.83;;;15.93;;
9238;SDS011;4654;43.242;27.976;2024-03-08T13:16:32;29.30;;;14.33;;
9238;SDS011;4654;43.242;27.976;2024-03-08T13:19:00;21.33;;;15.30;;
9238;SDS011;4654;43.242;27.976;2024-03-08T13:21:27;21.40;;;14.50;;
9238;SDS011;4654;43.242;27.976;2024-03-08T13:23:55;20.60;;;13.93;;
9238;SDS011;4654;43.242;27.976;2024-03-08T13:26:24;19.37;;;13.53;;
9238;SDS011;4654;43.242;27.976;2024-03-08T13:28:57;23.90;;;13.70;;
9238;SDS011;4654;43.242;27.976;2024-03-08T13:31:25;17.03;;;13.60;;
9238;SDS011;4654;43.242;27.976;2024-03-08T13:33:54;24.13;;;14.50;;
9238;SDS011;4654;43.242;27.976;2024-03-08T13:36:23;20.57;;;14.50;;
9238;SDS011;4654;43.242;27.976;2024-03-08T13:38:54;24.23;;;15.23;;
9238;SDS011;4654;43.242;27.976;2024-03-08T13:41:24;22.67;;;15.13;;
9238;SDS011;4654;43.242;27.976;2024-03-08T13:43:51;23.63;;;14.50;;
9238;SDS011;4654;43.242;27.976;2024-03-08T13:46:21;22.47;;;16.00;;
9238;SDS011;4654;43.242;27.976;2024-03-08T13:48:49;23.20;;;15.67;;
9238;SDS011;4654;43.242;27.976;2024-03-08T13:51:18;26.47;;;17.83;;
9238;SDS011;4654;43.242;27.976;2024-03-08T13:53:47;25.33;;;16.37;;
9238;SDS011;4654;43.242;27.976;2024-03-08T13:56:14;22.43;;;14.73;;
9238;SDS011;4654;43.242;27.976;2024-03-08T13:58:42;21.73;;;14.73;;
9238;SDS011;4654;43.242;27.976;2024-03-08T14:01:09;18.47;;;12.83;;
9238;SDS011;4654;43.242;27.976;2024-03-08T14:03:36;22.17;;;14.63;;
9238;SDS011;4654;43.242;27.976;2024-03-08T14:06:07;25.83;;;14.20;;
9238;SDS011;4654;43.242;27.976;2024-03-08T14:08:36;20.43;;;12.90;;
9238;SDS011;4654;43.242;27.976;2024-03-08T14:11:03;22.17;;;13.43;;
9238;SDS011;4654;43.242;27.976;2024-03-08T14:13:40;19.27;;;13.03;;
9238;SDS011;4654;43.242;27.976;2024-03-08T14:16:10;20.83;;;14.10;;
9238;SDS011;4654;43.242;27.976;2024-03-08T14:18:38;19.80;;;12.93;;
9238;SDS011;4654;43.242;27.976;2024-03-08T14:21:05;20.13;;;14.13;;
9238;SDS011;4654;43.242;27.976;2024-03-08T14:23:33;20.77;;;13.57;;
9238;SDS011;4654;43.242;27.976;2024-03-08T14:26:02;21.07;;;13.13;;
9238;SDS011;4654;43.242;27.976;2024-03-08T14:28:32;19.67;;;12.00;;
9238;SDS011;4654;43.242;27.976;2024-03-08T14:30:59;16.67;;;13.03;;
9238;SDS011;4654;43.242;27.976;2024-03-08T14:33:28;22.10;;;14.43;;
9238;SDS011;4654;43.242;27.976;2024-03-08T14:35:56;18.20;;;12.33;;
9238;SDS011;4654;43.242;27.976;2024-03-08T14:38:24;18.93;;;12.10;;
9238;SDS011;4654;43.242;27.976;2024-03-08T14:40:54;22.67;;;13.47;;
9238;SDS011;4654;43.242;27.976;2024-03-08T14:43:21;22.73;;;12.83;;
9238;SDS011;4654;43.242;27.976;2024-03-08T14:45:49;21.73;;;12.50;;